sensor_id;sensor_type;location;lat;lon;timestamp;pressure;altitude;pressure_sealevel;temperature;humidity
13414;BME280;6778;48.136;11.386;2023-02-02T00:02:02;95752.81;;;5.93;63.64
13414;BME280;6778;48.136;11.386;2023-02-02T00:04:34;95763.25;;;5.85;63.92
13414;BME280;6778;48.136;11.386;2023-02-02T00:07:07;95762.34;;;5.78;64.03
13414;BME280;6778;48.136;11.386;2023-02-02T00:09:37;95778.19;;;5.91;63.94
13414;BME280;6778;48.136;11.386;2023-02-02T00:12:08;95750.78;;;6.04;63.36
13414;BME280;6778;48.136;11.386;2023-02-02T00:14:39;95725.44;;;5.83;63.77
13414;BME280;6778;48.136;11.386;2023-02-02T00:17:10;95742.25;;;5.72;63.69
13414;BME280;6778;48.136;11.386;2023-02-02T00:19:43;95744.44;;;5.83;64.05
13414;BME280;6778;48.136;11.386;2023-02-02T00:22:15;95738.13;;;5.78;63.68
13414;BME280;6778;48.136;11.386;2023-02-02T00:24:46;95748.72;;;5.76;64.25
13414;BME280;6778;48.136;11.386;2023-02-02T00:27:16;95752.03;;;5.85;64.25
13414;BME280;6778;48.136;11.386;2023-02-02T00:29:46;95749.53;;;5.77;64.62
13414;BME280;6778;48.136;11.386;2023-02-02T00:32:19;95744.66;;;5.73;65.37
13414;BME280;6778;48.136;11.386;2023-02-02T00:34:50;95748.53;;;5.78;64.90
13414;BME280;6778;48.136;11.386;2023-02-02T00:37:23;95746.31;;;5.89;64.73
13414;BME280;6778;48.136;11.386;2023-02-02T00:39:53;95750.31;;;5.77;64.85
13414;BME280;6778;48.136;11.386;2023-02-02T00:42:23;95737.75;;;5.66;65.62
13414;BME280;6778;48.136;11.386;2023-02-02T00:44:53;95742.50;;;5.62;66.44
13414;BME280;6778;48.136;11.386;2023-02-02T00:47:35;95737.38;;;5.69;66.22
13414;BME280;6778;48.136;11.386;2023-02-02T00:50:06;95733.81;;;5.93;66.01
13414;BME280;6778;48.136;11.386;2023-02-02T00:52:41;95748.00;;;5.82;66.23
13414;BME280;6778;48.136;11.386;2023-02-02T00:55:12;95745.94;;;5.78;66.94
13414;BME280;6778;48.136;11.386;2023-02-02T00:57:42;95745.13;;;5.54;68.02
13414;BME280;6778;48.136;11.386;2023-02-02T01:00:14;95744.63;;;5.59;68.09
13414;BME280;6778;48.136;11.386;2023-02-02T01:02:46;95735.06;;;5.74;67.78
13414;BME280;6778;48.136;11.386;2023-02-02T01:05:16;95732.66;;;5.72;67.30
13414;BME280;6778;48.136;11.386;2023-02-02T01:07:50;95725.03;;;5.71;67.30
13414;BME280;6778;48.136;11.386;2023-02-02T01:10:20;95734.84;;;5.61;67.76
13414;BME280;6778;48.136;11.386;2023-02-02T01:12:50;95725.25;;;5.61;68.10
13414;BME280;6778;48.136;11.386;2023-02-02T01:15:21;95734.78;;;5.69;67.81
13414;BME280;6778;48.136;11.386;2023-02-02T01:17:51;95734.94;;;5.53;68.63
13414;BME280;6778;48.136;11.386;2023-02-02T01:20:22;95726.94;;;5.54;68.55
13414;BME280;6778;48.136;11.386;2023-02-02T01:22:55;95730.47;;;5.61;68.09
13414;BME280;6778;48.136;11.386;2023-02-02T01:25:25;95724.31;;;5.62;67.99
13414;BME280;6778;48.136;11.386;2023-02-02T01:27:56;95737.41;;;5.46;68.52
13414;BME280;6778;48.136;11.386;2023-02-02T01:30:27;95726.44;;;5.59;68.12
13414;BME280;6778;48.136;11.386;2023-02-02T01:32:57;95717.91;;;5.50;67.77
13414;BME280;6778;48.136;11.386;2023-02-02T01:35:27;95723.47;;;5.62;68.00
13414;BME280;6778;48.136;11.386;2023-02-02T01:37:59;95727.94;;;5.53;67.95
13414;BME280;6778;48.136;11.386;2023-02-02T01:40:30;95721.09;;;5.75;67.05
13414;BME280;6778;48.136;11.386;2023-02-02T01:43:00;95724.78;;;5.81;67.02
13414;BME280;6778;48.136;11.386;2023-02-02T01:45:30;95721.16;;;5.67;66.92
13414;BME280;6778;48.136;11.386;2023-02-02T01:48:00;95723.47;;;5.62;67.30
13414;BME280;6778;48.136;11.386;2023-02-02T01:50:33;95714.94;;;5.76;67.24
13414;BME280;6778;48.136;11.386;2023-02-02T01:53:08;95702.94;;;5.52;67.67
13414;BME280;6778;48.136;11.386;2023-02-02T01:55:40;95711.44;;;5.46;68.18
13414;BME280;6778;48.136;11.386;2023-02-02T01:58:15;95722.84;;;5.60;67.99
13414;BME280;6778;48.136;11.386;2023-02-02T02:00:47;95717.03;;;5.58;68.39
13414;BME280;6778;48.136;11.386;2023-02-02T02:03:20;95717.47;;;5.61;67.98
13414;BME280;6778;48.136;11.386;2023-02-02T02:09:10;95710.69;;;5.37;68.19
13414;BME280;6778;48.136;11.386;2023-02-02T02:11:40;95707.44;;;5.58;68.36
13414;BME280;6778;48.136;11.386;2023-02-02T02:14:13;95714.50;;;5.50;68.15
13414;BME280;6778;48.136;11.386;2023-02-02T02:17:10;95712.13;;;5.63;68.02
13414;BME280;6778;48.136;11.386;2023-02-02T02:20:19;95714.06;;;5.61;67.47
13414;BME280;6778;48.136;11.386;2023-02-02T02:23:39;95718.81;;;5.34;68.52
13414;BME280;6778;48.136;11.386;2023-02-02T02:26:55;95718.66;;;5.36;68.87
13414;BME280;6778;48.136;11.386;2023-02-02T02:32:39;95700.06;;;5.47;68.06
13414;BME280;6778;48.136;11.386;2023-02-02T02:35:19;95695.91;;;5.38;68.41
13414;BME280;6778;48.136;11.386;2023-02-02T02:37:59;95687.66;;;5.57;68.09
13414;BME280;6778;48.136;11.386;2023-02-02T02:40:36;95670.09;;;5.59;67.68
13414;BME280;6778;48.136;11.386;2023-02-02T02:43:14;95693.38;;;5.67;67.20
13414;BME280;6778;48.136;11.386;2023-02-02T02:45:46;95685.75;;;5.51;68.03
13414;BME280;6778;48.136;11.386;2023-02-02T02:48:19;95677.69;;;5.61;67.61
13414;BME280;6778;48.136;11.386;2023-02-02T02:50:49;95682.34;;;5.51;67.85
13414;BME280;6778;48.136;11.386;2023-02-02T02:53:21;95679.28;;;5.47;68.34
13414;BME280;6778;48.136;11.386;2023-02-02T02:56:00;95690.84;;;5.44;68.19
13414;BME280;6778;48.136;11.386;2023-02-02T02:58:42;95685.50;;;5.61;67.76
13414;BME280;6778;48.136;11.386;2023-02-02T03:01:20;95705.84;;;5.57;68.00
13414;BME280;6778;48.136;11.386;2023-02-02T03:04:08;95704.66;;;5.60;67.70
13414;BME280;6778;48.136;11.386;2023-02-02T03:06:46;95700.56;;;5.65;67.65
13414;BME280;6778;48.136;11.386;2023-02-02T03:09:22;95689.38;;;5.80;67.26
13414;BME280;6778;48.136;11.386;2023-02-02T03:11:56;95693.97;;;5.78;67.92
13414;BME280;6778;48.136;11.386;2023-02-02T03:14:26;95688.88;;;5.61;68.11
13414;BME280;6778;48.136;11.386;2023-02-02T03:16:56;95680.41;;;5.67;67.71
13414;BME280;6778;48.136;11.386;2023-02-02T03:19:29;95686.69;;;5.73;67.77
13414;BME280;6778;48.136;11.386;2023-02-02T03:21:59;95702.94;;;5.90;67.35
13414;BME280;6778;48.136;11.386;2023-02-02T03:24:29;95683.53;;;5.63;69.07
13414;BME280;6778;48.136;11.386;2023-02-02T03:27:00;95692.97;;;5.41;70.95
13414;BME280;6778;48.136;11.386;2023-02-02T03:29:30;95692.84;;;5.34;72.21
13414;BME280;6778;48.136;11.386;2023-02-02T03:32:00;95672.53;;;5.38;72.81
13414;BME280;6778;48.136;11.386;2023-02-02T03:34:33;95689.34;;;5.50;72.08
13414;BME280;6778;48.136;11.386;2023-02-02T03:37:03;95695.50;;;5.49;71.98
13414;BME280;6778;48.136;11.386;2023-02-02T03:39:35;95706.81;;;5.56;71.77
13414;BME280;6778;48.136;11.386;2023-02-02T03:42:05;95698.00;;;5.42;71.75
13414;BME280;6778;48.136;11.386;2023-02-02T03:44:35;95699.84;;;5.57;70.84
13414;BME280;6778;48.136;11.386;2023-02-02T03:47:05;95708.72;;;5.62;71.19
13414;BME280;6778;48.136;11.386;2023-02-02T03:49:38;95706.47;;;5.59;70.74
13414;BME280;6778;48.136;11.386;2023-02-02T03:52:08;95702.16;;;5.66;70.83
13414;BME280;6778;48.136;11.386;2023-02-02T03:54:39;95709.03;;;5.44;71.38
13414;BME280;6778;48.136;11.386;2023-02-02T03:57:09;95703.56;;;5.54;70.66
13414;BME280;6778;48.136;11.386;2023-02-02T03:59:40;95719.22;;;5.46;71.24
13414;BME280;6778;48.136;11.386;2023-02-02T04:02:10;95713.84;;;5.47;71.09
13414;BME280;6778;48.136;11.386;2023-02-02T04:04:42;95700.06;;;5.47;70.69
13414;BME280;6778;48.136;11.386;2023-02-02T04:07:13;95712.63;;;5.58;70.74
13414;BME280;6778;48.136;11.386;2023-02-02T04:09:43;95705.03;;;5.57;70.81
13414;BME280;6778;48.136;11.386;2023-02-02T04:12:13;95714.53;;;5.64;70.12
13414;BME280;6778;48.136;11.386;2023-02-02T04:14:43;95710.34;;;5.78;69.45
13414;BME280;6778;48.136;11.386;2023-02-02T04:17:13;95711.75;;;5.66;69.72
13414;BME280;6778;48.136;11.386;2023-02-02T04:19:46;95707.28;;;5.74;70.06
13414;BME280;6778;48.136;11.386;2023-02-02T04:22:19;95719.75;;;5.79;69.14
13414;BME280;6778;48.136;11.386;2023-02-02T04:24:48;95720.94;;;5.77;69.70
13414;BME280;6778;48.136;11.386;2023-02-02T04:27:18;95713.94;;;5.77;69.56
13414;BME280;6778;48.136;11.386;2023-02-02T04:29:48;95705.13;;;5.63;70.10
13414;BME280;6778;48.136;11.386;2023-02-02T04:32:18;95694.56;;;5.65;70.11
13414;BME280;6778;48.136;11.386;2023-02-02T04:34:51;95706.00;;;5.56;70.39
13414;BME280;6778;48.136;11.386;2023-02-02T04:37:21;95713.19;;;5.68;69.77
13414;BME280;6778;48.136;11.386;2023-02-02T04:39:51;95733.06;;;5.61;70.25
13414;BME280;6778;48.136;11.386;2023-02-02T04:42:21;95724.34;;;5.77;69.83
13414;BME280;6778;48.136;11.386;2023-02-02T04:44:51;95717.31;;;5.63;70.32
13414;BME280;6778;48.136;11.386;2023-02-02T04:47:21;95712.94;;;5.78;69.58
13414;BME280;6778;48.136;11.386;2023-02-02T04:49:53;95732.56;;;5.81;69.44
13414;BME280;6778;48.136;11.386;2023-02-02T04:52:23;95718.66;;;5.96;68.70
13414;BME280;6778;48.136;11.386;2023-02-02T04:54:53;95714.44;;;5.95;68.48
13414;BME280;6778;48.136;11.386;2023-02-02T04:57:23;95718.44;;;5.83;69.03
13414;BME280;6778;48.136;11.386;2023-02-02T04:59:53;95732.50;;;5.89;68.55
13414;BME280;6778;48.136;11.386;2023-02-02T05:02:23;95749.69;;;5.98;68.80
13414;BME280;6778;48.136;11.386;2023-02-02T05:04:56;95716.19;;;5.80;69.14
13414;BME280;6778;48.136;11.386;2023-02-02T05:07:26;95714.28;;;5.89;69.19
13414;BME280;6778;48.136;11.386;2023-02-02T05:09:55;95732.09;;;5.62;69.66
13414;BME280;6778;48.136;11.386;2023-02-02T05:12:25;95725.28;;;5.99;68.45
13414;BME280;6778;48.136;11.386;2023-02-02T05:14:55;95737.69;;;5.89;68.79
13414;BME280;6778;48.136;11.386;2023-02-02T05:17:27;95735.63;;;5.69;69.46
13414;BME280;6778;48.136;11.386;2023-02-02T05:19:59;95735.25;;;5.72;69.09
13414;BME280;6778;48.136;11.386;2023-02-02T05:22:29;95732.84;;;5.71;69.85
13414;BME280;6778;48.136;11.386;2023-02-02T05:25:01;95740.44;;;5.95;69.09
13414;BME280;6778;48.136;11.386;2023-02-02T05:27:31;95747.19;;;6.05;67.97
13414;BME280;6778;48.136;11.386;2023-02-02T05:30:03;95751.91;;;6.01;68.24
13414;BME280;6778;48.136;11.386;2023-02-02T05:32:33;95760.03;;;5.83;68.64
13414;BME280;6778;48.136;11.386;2023-02-02T05:35:07;95746.09;;;5.99;68.94
13414;BME280;6778;48.136;11.386;2023-02-02T05:37:38;95752.94;;;5.77;69.29
13414;BME280;6778;48.136;11.386;2023-02-02T05:40:09;95756.69;;;5.52;69.96
13414;BME280;6778;48.136;11.386;2023-02-02T05:42:39;95756.00;;;5.35;70.58
13414;BME280;6778;48.136;11.386;2023-02-02T05:45:10;95745.47;;;5.28;71.24
13414;BME280;6778;48.136;11.386;2023-02-02T05:47:40;95757.66;;;5.28;71.89
13414;BME280;6778;48.136;11.386;2023-02-02T05:50:12;95747.00;;;5.23;72.03
13414;BME280;6778;48.136;11.386;2023-02-02T05:52:44;95758.81;;;5.25;72.04
13414;BME280;6778;48.136;11.386;2023-02-02T05:55:15;95753.00;;;5.23;71.83
13414;BME280;6778;48.136;11.386;2023-02-02T05:57:46;95746.88;;;5.16;71.98
13414;BME280;6778;48.136;11.386;2023-02-02T06:00:16;95747.22;;;5.13;72.18
13414;BME280;6778;48.136;11.386;2023-02-02T06:02:46;95754.19;;;5.12;71.99
13414;BME280;6778;48.136;11.386;2023-02-02T06:05:20;95755.06;;;5.05;72.25
13414;BME280;6778;48.136;11.386;2023-02-02T06:07:51;95766.06;;;5.07;72.58
13414;BME280;6778;48.136;11.386;2023-02-02T06:10:21;95758.13;;;5.08;72.46
13414;BME280;6778;48.136;11.386;2023-02-02T06:12:51;95757.34;;;5.00;72.95
13414;BME280;6778;48.136;11.386;2023-02-02T06:15:21;95772.91;;;5.00;73.05
13414;BME280;6778;48.136;11.386;2023-02-02T06:17:53;95759.94;;;5.00;73.55
13414;BME280;6778;48.136;11.386;2023-02-02T06:20:27;95762.72;;;4.98;73.34
13414;BME280;6778;48.136;11.386;2023-02-02T06:23:00;95772.91;;;5.00;73.53
13414;BME280;6778;48.136;11.386;2023-02-02T06:25:30;95766.72;;;5.09;73.35
13414;BME280;6778;48.136;11.386;2023-02-02T06:28:00;95758.00;;;5.02;73.54
13414;BME280;6778;48.136;11.386;2023-02-02T06:30:30;95763.34;;;5.00;74.11
13414;BME280;6778;48.136;11.386;2023-02-02T06:33:00;95772.91;;;5.00;74.14
13414;BME280;6778;48.136;11.386;2023-02-02T06:35:33;95771.66;;;4.96;74.41
13414;BME280;6778;48.136;11.386;2023-02-02T06:38:03;95765.31;;;4.98;74.09
13414;BME280;6778;48.136;11.386;2023-02-02T06:40:35;95771.50;;;4.97;74.15
13414;BME280;6778;48.136;11.386;2023-02-02T06:43:05;95768.41;;;4.93;74.04
13414;BME280;6778;48.136;11.386;2023-02-02T06:45:35;95753.50;;;4.96;74.24
13414;BME280;6778;48.136;11.386;2023-02-02T06:48:06;95776.38;;;4.92;74.24
13414;BME280;6778;48.136;11.386;2023-02-02T06:50:39;95776.38;;;4.92;74.75
13414;BME280;6778;48.136;11.386;2023-02-02T06:53:09;95772.78;;;4.93;74.97
13414;BME280;6778;48.136;11.386;2023-02-02T06:55:39;95777.84;;;4.95;75.14
13414;BME280;6778;48.136;11.386;2023-02-02T06:58:09;95795.34;;;4.92;74.85
13414;BME280;6778;48.136;11.386;2023-02-02T07:00:39;95790.84;;;5.17;75.84
13414;BME280;6778;48.136;11.386;2023-02-02T07:03:09;95793.19;;;5.04;74.72
13414;BME280;6778;48.136;11.386;2023-02-02T07:05:42;95805.22;;;4.97;74.61
13414;BME280;6778;48.136;11.386;2023-02-02T07:08:12;95794.66;;;4.99;74.52
13414;BME280;6778;48.136;11.386;2023-02-02T07:10:42;95814.00;;;4.96;74.86
13414;BME280;6778;48.136;11.386;2023-02-02T07:13:32;95813.81;;;4.98;74.95
13414;BME280;6778;48.136;11.386;2023-02-02T07:16:02;95818.38;;;4.96;74.56
13414;BME280;6778;48.136;11.386;2023-02-02T07:18:35;95823.84;;;5.01;74.98
13414;BME280;6778;48.136;11.386;2023-02-02T07:21:08;95814.75;;;5.05;74.97
13414;BME280;6778;48.136;11.386;2023-02-02T07:23:44;95821.91;;;5.03;74.93
13414;BME280;6778;48.136;11.386;2023-02-02T07:26:16;95824.97;;;5.06;74.53
13414;BME280;6778;48.136;11.386;2023-02-02T07:28:46;95822.19;;;5.08;75.31
13414;BME280;6778;48.136;11.386;2023-02-02T07:31:18;95828.09;;;5.02;75.85
13414;BME280;6778;48.136;11.386;2023-02-02T07:33:49;95830.16;;;5.06;75.71
13414;BME280;6778;48.136;11.386;2023-02-02T07:36:23;95810.06;;;5.08;75.40
13414;BME280;6778;48.136;11.386;2023-02-02T07:38:53;95819.59;;;5.08;75.38
13414;BME280;6778;48.136;11.386;2023-02-02T07:41:24;95822.38;;;5.06;75.14
13414;BME280;6778;48.136;11.386;2023-02-02T07:43:54;95826.59;;;5.07;75.24
13414;BME280;6778;48.136;11.386;2023-02-02T07:46:24;95832.59;;;5.08;75.20
13414;BME280;6778;48.136;11.386;2023-02-02T07:48:55;95832.25;;;5.11;75.75
13414;BME280;6778;48.136;11.386;2023-02-02T07:51:28;95838.09;;;5.13;75.89
13414;BME280;6778;48.136;11.386;2023-02-02T07:53:58;95836.03;;;5.08;76.21
13414;BME280;6778;48.136;11.386;2023-02-02T07:56:28;95837.28;;;5.12;76.74
13414;BME280;6778;48.136;11.386;2023-02-02T07:58:58;95838.63;;;5.08;76.98
13414;BME280;6778;48.136;11.386;2023-02-02T08:01:28;95841.22;;;5.08;77.54
13414;BME280;6778;48.136;11.386;2023-02-02T08:03:59;95830.16;;;5.06;77.51
13414;BME280;6778;48.136;11.386;2023-02-02T08:06:34;95842.50;;;5.04;77.60
13414;BME280;6778;48.136;11.386;2023-02-02T08:09:07;95848.50;;;5.05;77.59
13414;BME280;6778;48.136;11.386;2023-02-02T08:11:37;95852.53;;;5.07;77.17
13414;BME280;6778;48.136;11.386;2023-02-02T08:14:11;95850.75;;;5.08;77.76
13414;BME280;6778;48.136;11.386;2023-02-02T08:16:41;95849.66;;;5.02;77.75
13414;BME280;6778;48.136;11.386;2023-02-02T08:19:12;95858.72;;;5.06;77.51
13414;BME280;6778;48.136;11.386;2023-02-02T08:21:44;95857.91;;;5.06;78.32
13414;BME280;6778;48.136;11.386;2023-02-02T08:24:14;95864.09;;;5.05;77.97
13414;BME280;6778;48.136;11.386;2023-02-02T08:26:44;95872.84;;;5.04;78.17
13414;BME280;6778;48.136;11.386;2023-02-02T08:29:14;95881.09;;;5.07;78.10
13414;BME280;6778;48.136;11.386;2023-02-02T08:31:45;95879.97;;;5.10;78.25
13414;BME280;6778;48.136;11.386;2023-02-02T08:34:15;95870.72;;;5.07;78.44
13414;BME280;6778;48.136;11.386;2023-02-02T08:36:47;95876.09;;;5.06;79.26
13414;BME280;6778;48.136;11.386;2023-02-02T08:39:17;95878.06;;;5.04;79.54
13414;BME280;6778;48.136;11.386;2023-02-02T08:41:47;95884.50;;;5.08;79.40
13414;BME280;6778;48.136;11.386;2023-02-02T08:44:17;95886.97;;;5.09;79.64
13414;BME280;6778;48.136;11.386;2023-02-02T08:46:49;95895.69;;;5.16;79.72
13414;BME280;6778;48.136;11.386;2023-02-02T08:49:19;95898.28;;;5.16;79.75
13414;BME280;6778;48.136;11.386;2023-02-02T08:51:52;95898.28;;;5.16;79.87
13414;BME280;6778;48.136;11.386;2023-02-02T08:54:22;95899.41;;;5.14;79.78
13414;BME280;6778;48.136;11.386;2023-02-02T08:56:52;95875.25;;;5.13;80.05
13414;BME280;6778;48.136;11.386;2023-02-02T08:59:21;95888.41;;;5.12;79.54
13414;BME280;6778;48.136;11.386;2023-02-02T09:01:51;95906.25;;;5.15;79.59
13414;BME280;6778;48.136;11.386;2023-02-02T09:04:22;95899.09;;;5.17;80.24
13414;BME280;6778;48.136;11.386;2023-02-02T09:06:55;95906.22;;;5.23;79.59
13414;BME280;6778;48.136;11.386;2023-02-02T09:09:25;95901.34;;;5.20;79.52
13414;BME280;6778;48.136;11.386;2023-02-02T09:11:55;95895.50;;;5.18;79.73
13414;BME280;6778;48.136;11.386;2023-02-02T09:14:25;95901.84;;;5.24;80.03
13414;BME280;6778;48.136;11.386;2023-02-02T09:16:55;95908.50;;;5.18;79.83
13414;BME280;6778;48.136;11.386;2023-02-02T09:19:26;95914.63;;;5.25;80.00
13414;BME280;6778;48.136;11.386;2023-02-02T09:21:59;95926.63;;;5.26;80.16
13414;BME280;6778;48.136;11.386;2023-02-02T09:24:31;95915.94;;;5.21;80.44
13414;BME280;6778;48.136;11.386;2023-02-02T09:27:01;95909.00;;;5.13;80.81
13414;BME280;6778;48.136;11.386;2023-02-02T09:29:31;95915.97;;;5.13;80.64
13414;BME280;6778;48.136;11.386;2023-02-02T09:32:01;95913.22;;;5.14;80.95
13414;BME280;6778;48.136;11.386;2023-02-02T09:34:32;95924.09;;;5.18;80.89
13414;BME280;6778;48.136;11.386;2023-02-02T09:37:04;95920.84;;;5.16;81.56
13414;BME280;6778;48.136;11.386;2023-02-02T09:39:34;95923.28;;;5.17;81.36
13414;BME280;6778;48.136;11.386;2023-02-02T09:42:24;95917.41;;;5.24;81.35
13414;BME280;6778;48.136;11.386;2023-02-02T09:45:02;95924.41;;;5.23;81.57
13414;BME280;6778;48.136;11.386;2023-02-02T09:47:51;95944.38;;;5.23;82.25
13414;BME280;6778;48.136;11.386;2023-02-02T09:50:35;95925.56;;;5.12;82.41
13414;BME280;6778;48.136;11.386;2023-02-02T09:53:17;95927.16;;;5.13;82.42
13414;BME280;6778;48.136;11.386;2023-02-02T09:55:51;95929.44;;;5.16;82.40
13414;BME280;6778;48.136;11.386;2023-02-02T09:58:27;95932.22;;;5.15;82.75
13414;BME280;6778;48.136;11.386;2023-02-02T10:01:05;95929.59;;;5.23;82.20
13414;BME280;6778;48.136;11.386;2023-02-02T10:03:41;95922.44;;;5.25;82.40
13414;BME280;6778;48.136;11.386;2023-02-02T10:06:25;95932.19;;;5.23;81.52
13414;BME280;6778;48.136;11.386;2023-02-02T10:09:07;95932.16;;;5.31;81.64
13414;BME280;6778;48.136;11.386;2023-02-02T10:11:50;95929.41;;;5.25;80.32
13414;BME280;6778;48.136;11.386;2023-02-02T10:14:26;95931.13;;;5.40;81.51
13414;BME280;6778;48.136;11.386;2023-02-02T10:17:06;95918.66;;;5.36;80.52
13414;BME280;6778;48.136;11.386;2023-02-02T10:19:39;95926.59;;;5.34;80.33
13414;BME280;6778;48.136;11.386;2023-02-02T10:22:16;95922.09;;;5.28;80.04
13414;BME280;6778;48.136;11.386;2023-02-02T10:24:51;95932.16;;;5.31;79.94
13414;BME280;6778;48.136;11.386;2023-02-02T10:27:31;95946.56;;;5.42;79.74
13414;BME280;6778;48.136;11.386;2023-02-02T10:30:15;95931.25;;;5.47;80.24
13414;BME280;6778;48.136;11.386;2023-02-02T10:32:51;95920.88;;;5.47;79.99
13414;BME280;6778;48.136;11.386;2023-02-02T10:35:35;95918.63;;;5.44;79.92
13414;BME280;6778;48.136;11.386;2023-02-02T10:38:18;95921.09;;;5.37;79.49
13414;BME280;6778;48.136;11.386;2023-02-02T10:41:01;95926.59;;;5.42;79.58
13414;BME280;6778;48.136;11.386;2023-02-02T10:43:53;95922.66;;;5.46;79.23
13414;BME280;6778;48.136;11.386;2023-02-02T10:46:33;95926.59;;;5.42;79.62
13414;BME280;6778;48.136;11.386;2023-02-02T10:49:20;95924.94;;;5.41;79.01
13414;BME280;6778;48.136;11.386;2023-02-02T10:51:58;95933.41;;;5.43;78.73
13414;BME280;6778;48.136;11.386;2023-02-02T10:54:43;95926.56;;;5.51;78.42
13414;BME280;6778;48.136;11.386;2023-02-02T10:57:37;95905.94;;;5.49;78.89
13414;BME280;6778;48.136;11.386;2023-02-02T11:00:20;95913.22;;;5.54;77.68
13414;BME280;6778;48.136;11.386;2023-02-02T11:02:51;95915.47;;;5.57;77.80
13414;BME280;6778;48.136;11.386;2023-02-02T11:05:25;95910.56;;;5.62;76.96
13414;BME280;6778;48.136;11.386;2023-02-02T11:08:13;95903.38;;;5.72;76.91
13414;BME280;6778;48.136;11.386;2023-02-02T11:10:45;95912.47;;;5.76;76.66
13414;BME280;6778;48.136;11.386;2023-02-02T11:13:26;95905.91;;;5.80;77.19
13414;BME280;6778;48.136;11.386;2023-02-02T11:16:19;95913.53;;;5.82;77.70
13414;BME280;6778;48.136;11.386;2023-02-02T11:18:50;95909.63;;;5.86;77.59
13414;BME280;6778;48.136;11.386;2023-02-02T11:21:23;95901.63;;;5.95;76.82
13414;BME280;6778;48.136;11.386;2023-02-02T11:23:57;95902.28;;;5.97;76.73
13414;BME280;6778;48.136;11.386;2023-02-02T11:26:42;95905.50;;;5.99;76.61
13414;BME280;6778;48.136;11.386;2023-02-02T11:29:21;95915.16;;;5.91;77.08
13414;BME280;6778;48.136;11.386;2023-02-02T11:31:54;95911.06;;;5.88;77.70
13414;BME280;6778;48.136;11.386;2023-02-02T11:34:26;95927.78;;;5.94;77.72
13414;BME280;6778;48.136;11.386;2023-02-02T11:36:59;95922.44;;;5.87;77.42
13414;BME280;6778;48.136;11.386;2023-02-02T11:39:29;95912.91;;;5.80;77.64
13414;BME280;6778;48.136;11.386;2023-02-02T11:42:00;95915.81;;;5.85;77.62
13414;BME280;6778;48.136;11.386;2023-02-02T11:44:37;95922.97;;;5.83;77.90
13414;BME280;6778;48.136;11.386;2023-02-02T11:47:18;95925.41;;;5.84;77.98
13414;BME280;6778;48.136;11.386;2023-02-02T11:49:50;95912.03;;;5.87;78.24
13414;BME280;6778;48.136;11.386;2023-02-02T11:52:26;95924.13;;;5.80;78.18
13414;BME280;6778;48.136;11.386;2023-02-02T11:55:01;95924.75;;;5.82;78.26
13414;BME280;6778;48.136;11.386;2023-02-02T11:57:37;95923.59;;;5.85;78.72
13414;BME280;6778;48.136;11.386;2023-02-02T12:00:20;95917.66;;;5.76;79.35
13414;BME280;6778;48.136;11.386;2023-02-02T12:02:53;95920.25;;;5.76;79.41
13414;BME280;6778;48.136;11.386;2023-02-02T12:05:33;95917.81;;;5.74;80.01
13414;BME280;6778;48.136;11.386;2023-02-02T12:08:03;95905.66;;;5.67;79.83
13414;BME280;6778;48.136;11.386;2023-02-02T12:10:45;95914.81;;;5.63;79.90
13414;BME280;6778;48.136;11.386;2023-02-02T12:13:31;95907.50;;;5.58;80.42
13414;BME280;6778;48.136;11.386;2023-02-02T12:19:18;95922.59;;;5.63;81.27
13414;BME280;6778;48.136;11.386;2023-02-02T12:22:04;95905.66;;;5.67;81.92
13414;BME280;6778;48.136;11.386;2023-02-02T12:24:47;95918.47;;;5.68;81.58
13414;BME280;6778;48.136;11.386;2023-02-02T12:27:32;95926.13;;;5.70;81.84
13414;BME280;6778;48.136;11.386;2023-02-02T12:30:23;95924.09;;;5.57;82.33
13414;BME280;6778;48.136;11.386;2023-02-02T12:33:16;95922.78;;;5.53;82.82
13414;BME280;6778;48.136;11.386;2023-02-02T12:36:05;95920.56;;;5.50;82.58
13414;BME280;6778;48.136;11.386;2023-02-02T12:41:54;95911.81;;;5.43;83.01
13414;BME280;6778;48.136;11.386;2023-02-02T12:44:41;95920.75;;;5.40;84.03
13414;BME280;6778;48.136;11.386;2023-02-02T12:47:23;95905.97;;;5.41;83.56
13414;BME280;6778;48.136;11.386;2023-02-02T12:50:17;95920.91;;;5.39;83.90
13414;BME280;6778;48.136;11.386;2023-02-02T12:53:08;95916.69;;;5.38;84.27
13414;BME280;6778;48.136;11.386;2023-02-02T12:55:50;95923.50;;;5.39;84.79
13414;BME280;6778;48.136;11.386;2023-02-02T12:58:34;95924.81;;;5.43;84.87
13414;BME280;6778;48.136;11.386;2023-02-02T13:01:37;95924.31;;;5.39;85.13
13414;BME280;6778;48.136;11.386;2023-02-02T13:04:33;95927.91;;;5.38;85.27
13414;BME280;6778;48.136;11.386;2023-02-02T13:07:24;95930.34;;;5.32;85.42
13414;BME280;6778;48.136;11.386;2023-02-02T13:10:12;95914.16;;;5.30;85.77
13414;BME280;6778;48.136;11.386;2023-02-02T13:12:51;95928.91;;;5.29;86.41
13414;BME280;6778;48.136;11.386;2023-02-02T13:15:30;95938.50;;;5.29;86.29
13414;BME280;6778;48.136;11.386;2023-02-02T13:18:07;95943.97;;;5.42;85.94
13414;BME280;6778;48.136;11.386;2023-02-02T13:20:44;95944.78;;;5.34;86.23
13414;BME280;6778;48.136;11.386;2023-02-02T13:23:22;95954.53;;;5.32;86.44
13414;BME280;6778;48.136;11.386;2023-02-02T13:25:59;95954.88;;;5.29;86.44
13414;BME280;6778;48.136;11.386;2023-02-02T13:28:40;95958.44;;;5.28;86.86
13414;BME280;6778;48.136;11.386;2023-02-02T13:31:17;95966.41;;;5.27;87.35
13414;BME280;6778;48.136;11.386;2023-02-02T13:33:59;95965.13;;;5.23;87.15
13414;BME280;6778;48.136;11.386;2023-02-02T13:36:34;95967.88;;;5.21;86.94
13414;BME280;6778;48.136;11.386;2023-02-02T13:39:17;95977.31;;;5.22;87.71
13414;BME280;6778;48.136;11.386;2023-02-02T13:41:51;95990.28;;;5.14;87.27
13414;BME280;6778;48.136;11.386;2023-02-02T13:44:28;95996.78;;;5.18;87.97
13414;BME280;6778;48.136;11.386;2023-02-02T13:47:07;95992.41;;;5.18;87.86
13414;BME280;6778;48.136;11.386;2023-02-02T13:49:44;95982.19;;;5.17;87.94
13414;BME280;6778;48.136;11.386;2023-02-02T13:52:38;95992.25;;;5.12;87.98
13414;BME280;6778;48.136;11.386;2023-02-02T13:55:36;95990.16;;;5.15;88.11
13414;BME280;6778;48.136;11.386;2023-02-02T13:58:41;95993.41;;;5.09;88.21
13414;BME280;6778;48.136;11.386;2023-02-02T14:01:18;95999.88;;;5.13;88.71
13414;BME280;6778;48.136;11.386;2023-02-02T14:03:53;95991.63;;;5.10;88.48